sensor_id;sensor_type;location;lat;lon;timestamp;P1;durP1;ratioP1;P2;durP2;ratioP2
35699;SDS011;21818;51.078;12.108;2024-03-02T00:00:00;23.90;;;11.45;;
35699;SDS011;21818;51.078;12.108;2024-03-02T00:02:34;25.55;;;12.63;;
35699;SDS011;21818;51.078;12.108;2024-03-02T00:05:05;21.83;;;11.85;;
35699;SDS011;21818;51.078;12.108;2024-03-02T00:07:31;23.63;;;11.60;;
35699;SDS011;21818;51.078;12.108;2024-03-02T00:09:57;21.83;;;11.40;;
35699;SDS011;21818;51.078;12.108;2024-03-02T00:12:22;22.85;;;11.57;;
35699;SDS011;21818;51.078;12.108;2024-03-02T00:14:48;23.50;;;11.68;;
35699;SDS011;21818;51.078;12.108;2024-03-02T00:17:17;20.05;;;10.82;;
35699;SDS011;21818;51.078;12.108;2024-03-02T00:19:49;23.75;;;11.32;;
35699;SDS011;21818;51.078;12.108;2024-03-02T00:22:15;20.35;;;10.75;;
35699;SDS011;21818;51.078;12.108;2024-03-02T00:24:41;25.08;;;12.30;;
35699;SDS011;21818;51.078;12.108;2024-03-02T00:27:06;23.13;;;11.07;;
35699;SDS011;21818;51.078;12.108;2024-03-02T00:29:32;20.23;;;10.10;;
35699;SDS011;21818;51.078;12.108;2024-03-02T00:32:00;19.27;;;9.85;;
35699;SDS011;21818;51.078;12.108;2024-03-02T00:34:26;19.10;;;10.70;;
35699;SDS011;21818;51.078;12.108;2024-03-02T00:36:51;21.25;;;10.25;;
35699;SDS011;21818;51.078;12.108;2024-03-02T00:39:17;19.77;;;10.75;;
35699;SDS011;21818;51.078;12.108;2024-03-02T00:41:43;18.85;;;9.52;;
35699;SDS011;21818;51.078;12.108;2024-03-02T00:44:09;19.55;;;10.50;;
35699;SDS011;21818;51.078;12.108;2024-03-02T00:46:40;17.95;;;10.38;;
35699;SDS011;21818;51.078;12.108;2024-03-02T00:51:49;19.75;;;10.57;;
35699;SDS011;21818;51.078;12.108;2024-03-02T00:54:18;15.60;;;8.75;;
35699;SDS011;21818;51.078;12.108;2024-03-02T00:56:49;21.05;;;10.23;;
35699;SDS011;21818;51.078;12.108;2024-03-02T00:59:15;15.98;;;9.63;;
35699;SDS011;21818;51.078;12.108;2024-03-02T01:01:41;15.48;;;9.23;;
35699;SDS011;21818;51.078;12.108;2024-03-02T01:04:07;18.75;;;9.38;;
35699;SDS011;21818;51.078;12.108;2024-03-02T01:06:34;20.50;;;10.60;;
35699;SDS011;21818;51.078;12.108;2024-03-02T01:09:00;16.08;;;8.57;;
35699;SDS011;21818;51.078;12.108;2024-03-02T01:11:25;15.30;;;9.23;;
35699;SDS011;21818;51.078;12.108;2024-03-02T01:13:51;20.65;;;9.50;;
35699;SDS011;21818;51.078;12.108;2024-03-02T01:16:17;17.88;;;8.55;;
35699;SDS011;21818;51.078;12.108;2024-03-02T01:18:43;15.73;;;9.25;;
35699;SDS011;21818;51.078;12.108;2024-03-02T01:21:08;16.90;;;9.23;;
35699;SDS011;21818;51.078;12.108;2024-03-02T01:23:34;17.63;;;9.23;;
35699;SDS011;21818;51.078;12.108;2024-03-02T01:26:00;17.00;;;8.95;;
35699;SDS011;21818;51.078;12.108;2024-03-02T01:28:25;17.60;;;8.35;;
35699;SDS011;21818;51.078;12.108;2024-03-02T01:30:51;18.17;;;9.25;;
35699;SDS011;21818;51.078;12.108;2024-03-02T01:33:16;17.75;;;9.15;;
35699;SDS011;21818;51.078;12.108;2024-03-02T01:35:43;18.10;;;9.20;;
35699;SDS011;21818;51.078;12.108;2024-03-02T01:38:08;16.60;;;8.60;;
35699;SDS011;21818;51.078;12.108;2024-03-02T01:40:34;16.08;;;8.60;;
35699;SDS011;21818;51.078;12.108;2024-03-02T01:43:00;15.35;;;7.75;;
35699;SDS011;21818;51.078;12.108;2024-03-02T01:45:27;14.95;;;8.45;;
35699;SDS011;21818;51.078;12.108;2024-03-02T01:47:53;17.15;;;9.30;;
35699;SDS011;21818;51.078;12.108;2024-03-02T01:50:28;15.63;;;8.95;;
35699;SDS011;21818;51.078;12.108;2024-03-02T01:52:56;13.90;;;8.88;;
35699;SDS011;21818;51.078;12.108;2024-03-02T01:55:22;17.05;;;8.35;;
35699;SDS011;21818;51.078;12.108;2024-03-02T01:57:50;13.77;;;8.15;;
35699;SDS011;21818;51.078;12.108;2024-03-02T02:00:17;14.02;;;8.70;;
35699;SDS011;21818;51.078;12.108;2024-03-02T02:02:44;15.32;;;8.43;;
35699;SDS011;21818;51.078;12.108;2024-03-02T02:05:10;17.92;;;8.73;;
35699;SDS011;21818;51.078;12.108;2024-03-02T02:07:36;16.38;;;8.10;;
35699;SDS011;21818;51.078;12.108;2024-03-02T02:10:02;14.43;;;8.43;;
35699;SDS011;21818;51.078;12.108;2024-03-02T02:12:28;13.73;;;8.07;;
35699;SDS011;21818;51.078;12.108;2024-03-02T02:14:53;17.50;;;8.77;;
35699;SDS011;21818;51.078;12.108;2024-03-02T02:17:19;17.63;;;8.70;;
35699;SDS011;21818;51.078;12.108;2024-03-02T02:19:45;15.20;;;7.85;;
35699;SDS011;21818;51.078;12.108;2024-03-02T02:22:10;16.52;;;8.20;;
35699;SDS011;21818;51.078;12.108;2024-03-02T02:24:40;14.07;;;7.38;;
35699;SDS011;21818;51.078;12.108;2024-03-02T02:27:06;14.93;;;8.32;;
35699;SDS011;21818;51.078;12.108;2024-03-02T02:29:35;16.33;;;8.93;;
35699;SDS011;21818;51.078;12.108;2024-03-02T02:32:01;18.73;;;8.75;;
35699;SDS011;21818;51.078;12.108;2024-03-02T02:34:27;15.48;;;8.23;;
35699;SDS011;21818;51.078;12.108;2024-03-02T02:36:53;14.07;;;7.82;;
35699;SDS011;21818;51.078;12.108;2024-03-02T02:39:19;18.58;;;8.25;;
35699;SDS011;21818;51.078;12.108;2024-03-02T02:41:47;14.98;;;7.97;;
35699;SDS011;21818;51.078;12.108;2024-03-02T02:44:13;16.95;;;8.40;;
35699;SDS011;21818;51.078;12.108;2024-03-02T02:46:39;15.07;;;7.93;;
35699;SDS011;21818;51.078;12.108;2024-03-02T02:49:05;17.08;;;8.23;;
35699;SDS011;21818;51.078;12.108;2024-03-02T02:51:30;19.02;;;8.68;;
35699;SDS011;21818;51.078;12.108;2024-03-02T02:53:56;17.73;;;9.07;;
35699;SDS011;21818;51.078;12.108;2024-03-02T02:56:21;16.55;;;9.20;;
35699;SDS011;21818;51.078;12.108;2024-03-02T02:58:47;15.40;;;8.18;;
35699;SDS011;21818;51.078;12.108;2024-03-02T03:01:13;17.67;;;8.55;;
35699;SDS011;21818;51.078;12.108;2024-03-02T03:03:39;18.17;;;9.52;;
35699;SDS011;21818;51.078;12.108;2024-03-02T03:06:05;17.60;;;8.77;;
35699;SDS011;21818;51.078;12.108;2024-03-02T03:08:31;14.85;;;8.77;;
35699;SDS011;21818;51.078;12.108;2024-03-02T03:10:56;18.70;;;9.80;;
35699;SDS011;21818;51.078;12.108;2024-03-02T03:13:22;18.13;;;8.88;;
35699;SDS011;21818;51.078;12.108;2024-03-02T03:15:47;15.18;;;8.48;;
35699;SDS011;21818;51.078;12.108;2024-03-02T03:18:13;16.90;;;8.98;;
35699;SDS011;21818;51.078;12.108;2024-03-02T03:20:38;14.52;;;7.88;;
35699;SDS011;21818;51.078;12.108;2024-03-02T03:23:04;18.13;;;9.63;;
35699;SDS011;21818;51.078;12.108;2024-03-02T03:25:30;19.50;;;9.70;;
35699;SDS011;21818;51.078;12.108;2024-03-02T03:27:55;16.75;;;8.55;;
35699;SDS011;21818;51.078;12.108;2024-03-02T03:30:21;17.50;;;9.07;;
35699;SDS011;21818;51.078;12.108;2024-03-02T03:32:46;18.23;;;8.90;;
35699;SDS011;21818;51.078;12.108;2024-03-02T03:35:13;15.90;;;8.98;;
35699;SDS011;21818;51.078;12.108;2024-03-02T03:37:40;15.20;;;8.25;;
35699;SDS011;21818;51.078;12.108;2024-03-02T03:40:06;22.10;;;9.50;;
35699;SDS011;21818;51.078;12.108;2024-03-02T03:42:34;18.25;;;9.77;;
35699;SDS011;21818;51.078;12.108;2024-03-02T03:45:03;20.20;;;10.45;;
35699;SDS011;21818;51.078;12.108;2024-03-02T03:47:33;18.02;;;9.48;;
35699;SDS011;21818;51.078;12.108;2024-03-02T03:49:59;18.35;;;8.48;;
35699;SDS011;21818;51.078;12.108;2024-03-02T03:52:24;15.48;;;8.35;;
35699;SDS011;21818;51.078;12.108;2024-03-02T03:54:50;18.08;;;9.93;;
35699;SDS011;21818;51.078;12.108;2024-03-02T03:57:16;19.95;;;8.98;;
35699;SDS011;21818;51.078;12.108;2024-03-02T03:59:42;16.70;;;9.00;;
35699;SDS011;21818;51.078;12.108;2024-03-02T04:02:08;22.58;;;9.80;;
35699;SDS011;21818;51.078;12.108;2024-03-02T04:04:34;20.92;;;9.15;;
35699;SDS011;21818;51.078;12.108;2024-03-02T04:06:59;18.40;;;8.90;;
35699;SDS011;21818;51.078;12.108;2024-03-02T04:09:25;17.38;;;9.00;;
35699;SDS011;21818;51.078;12.108;2024-03-02T04:11:51;20.88;;;9.85;;
35699;SDS011;21818;51.078;12.108;2024-03-02T04:14:16;19.67;;;9.93;;
35699;SDS011;21818;51.078;12.108;2024-03-02T04:16:42;18.65;;;9.93;;
35699;SDS011;21818;51.078;12.108;2024-03-02T04:19:08;22.80;;;11.00;;
35699;SDS011;21818;51.078;12.108;2024-03-02T04:21:33;17.27;;;8.60;;
35699;SDS011;21818;51.078;12.108;2024-03-02T04:24:00;22.45;;;9.80;;
35699;SDS011;21818;51.078;12.108;2024-03-02T04:26:26;16.70;;;9.55;;
35699;SDS011;21818;51.078;12.108;2024-03-02T04:28:52;18.55;;;10.30;;
35699;SDS011;21818;51.078;12.108;2024-03-02T04:31:18;19.25;;;10.23;;
35699;SDS011;21818;51.078;12.108;2024-03-02T04:33:44;18.25;;;10.27;;
35699;SDS011;21818;51.078;12.108;2024-03-02T04:36:10;20.65;;;10.35;;
35699;SDS011;21818;51.078;12.108;2024-03-02T04:38:36;20.70;;;9.80;;
35699;SDS011;21818;51.078;12.108;2024-03-02T04:41:01;21.23;;;10.10;;
35699;SDS011;21818;51.078;12.108;2024-03-02T04:43:27;20.10;;;10.50;;
35699;SDS011;21818;51.078;12.108;2024-03-02T04:45:52;22.30;;;10.80;;
35699;SDS011;21818;51.078;12.108;2024-03-02T04:48:18;19.88;;;10.52;;
35699;SDS011;21818;51.078;12.108;2024-03-02T04:50:44;20.90;;;10.90;;
35699;SDS011;21818;51.078;12.108;2024-03-02T04:53:10;23.08;;;10.23;;
35699;SDS011;21818;51.078;12.108;2024-03-02T04:55:35;18.83;;;10.52;;
35699;SDS011;21818;51.078;12.108;2024-03-02T04:58:06;23.40;;;10.27;;
35699;SDS011;21818;51.078;12.108;2024-03-02T05:00:32;20.90;;;10.80;;
35699;SDS011;21818;51.078;12.108;2024-03-02T05:02:58;19.77;;;9.80;;
35699;SDS011;21818;51.078;12.108;2024-03-02T05:05:24;20.85;;;10.10;;
35699;SDS011;21818;51.078;12.108;2024-03-02T05:07:50;19.90;;;9.90;;
35699;SDS011;21818;51.078;12.108;2024-03-02T05:10:15;18.50;;;9.98;;
35699;SDS011;21818;51.078;12.108;2024-03-02T05:12:41;23.70;;;10.52;;
35699;SDS011;21818;51.078;12.108;2024-03-02T05:15:10;15.93;;;9.20;;
35699;SDS011;21818;51.078;12.108;2024-03-02T05:17:37;20.40;;;9.85;;
35699;SDS011;21818;51.078;12.108;2024-03-02T05:20:03;19.00;;;9.63;;
35699;SDS011;21818;51.078;12.108;2024-03-02T05:22:29;22.40;;;10.90;;
35699;SDS011;21818;51.078;12.108;2024-03-02T05:24:55;22.10;;;10.52;;
35699;SDS011;21818;51.078;12.108;2024-03-02T05:27:21;19.75;;;10.77;;
35699;SDS011;21818;51.078;12.108;2024-03-02T05:29:47;21.45;;;10.60;;
35699;SDS011;21818;51.078;12.108;2024-03-02T05:32:12;28.75;;;12.10;;
35699;SDS011;21818;51.078;12.108;2024-03-02T05:34:38;19.60;;;10.23;;
35699;SDS011;21818;51.078;12.108;2024-03-02T05:37:03;19.98;;;10.63;;
35699;SDS011;21818;51.078;12.108;2024-03-02T05:39:29;21.10;;;10.75;;
35699;SDS011;21818;51.078;12.108;2024-03-02T05:41:54;21.08;;;10.50;;
35699;SDS011;21818;51.078;12.108;2024-03-02T05:44:20;22.83;;;11.00;;
35699;SDS011;21818;51.078;12.108;2024-03-02T05:46:47;20.65;;;11.15;;
35699;SDS011;21818;51.078;12.108;2024-03-02T05:49:12;23.52;;;11.45;;
35699;SDS011;21818;51.078;12.108;2024-03-02T05:51:38;23.02;;;11.18;;
35699;SDS011;21818;51.078;12.108;2024-03-02T05:54:04;25.70;;;11.55;;
35699;SDS011;21818;51.078;12.108;2024-03-02T05:56:29;20.33;;;11.38;;
35699;SDS011;21818;51.078;12.108;2024-03-02T05:58:55;19.90;;;10.18;;
35699;SDS011;21818;51.078;12.108;2024-03-02T06:01:32;22.15;;;10.93;;
35699;SDS011;21818;51.078;12.108;2024-03-02T06:03:58;21.50;;;10.98;;
35699;SDS011;21818;51.078;12.108;2024-03-02T06:06:24;19.52;;;10.55;;
35699;SDS011;21818;51.078;12.108;2024-03-02T06:08:49;24.67;;;11.45;;
35699;SDS011;21818;51.078;12.108;2024-03-02T06:11:15;18.17;;;9.77;;
35699;SDS011;21818;51.078;12.108;2024-03-02T06:13:41;31.17;;;11.68;;
35699;SDS011;21818;51.078;12.108;2024-03-02T06:16:07;21.58;;;10.13;;
35699;SDS011;21818;51.078;12.108;2024-03-02T06:18:33;24.00;;;11.98;;
35699;SDS011;21818;51.078;12.108;2024-03-02T06:20:59;23.73;;;12.15;;
35699;SDS011;21818;51.078;12.108;2024-03-02T06:23:25;24.67;;;11.48;;
35699;SDS011;21818;51.078;12.108;2024-03-02T06:25:51;22.75;;;11.73;;
35699;SDS011;21818;51.078;12.108;2024-03-02T06:28:17;23.08;;;10.73;;
35699;SDS011;21818;51.078;12.108;2024-03-02T06:30:43;22.13;;;11.13;;
35699;SDS011;21818;51.078;12.108;2024-03-02T06:33:09;20.75;;;10.48;;
35699;SDS011;21818;51.078;12.108;2024-03-02T06:35:34;22.60;;;11.48;;
35699;SDS011;21818;51.078;12.108;2024-03-02T06:38:00;23.90;;;10.13;;
35699;SDS011;21818;51.078;12.108;2024-03-02T06:40:26;24.20;;;11.02;;
35699;SDS011;21818;51.078;12.108;2024-03-02T06:42:52;22.15;;;11.25;;
35699;SDS011;21818;51.078;12.108;2024-03-02T06:45:17;22.67;;;11.43;;
35699;SDS011;21818;51.078;12.108;2024-03-02T06:47:43;26.05;;;11.07;;
35699;SDS011;21818;51.078;12.108;2024-03-02T06:50:08;22.38;;;10.77;;
35699;SDS011;21818;51.078;12.108;2024-03-02T06:52:34;21.42;;;11.70;;
35699;SDS011;21818;51.078;12.108;2024-03-02T06:55:00;23.33;;;12.43;;
35699;SDS011;21818;51.078;12.108;2024-03-02T06:57:26;20.48;;;9.88;;
35699;SDS011;21818;51.078;12.108;2024-03-02T06:59:51;20.23;;;10.80;;
35699;SDS011;21818;51.078;12.108;2024-03-02T07:02:19;22.65;;;11.70;;
35699;SDS011;21818;51.078;12.108;2024-03-02T07:04:46;21.88;;;10.07;;
35699;SDS011;21818;51.078;12.108;2024-03-02T07:07:11;23.98;;;11.27;;
35699;SDS011;21818;51.078;12.108;2024-03-02T07:09:37;20.35;;;10.43;;
35699;SDS011;21818;51.078;12.108;2024-03-02T07:12:03;17.15;;;8.75;;
35699;SDS011;21818;51.078;12.108;2024-03-02T07:14:29;17.63;;;9.02;;
35699;SDS011;21818;51.078;12.108;2024-03-02T07:17:13;19.23;;;8.52;;
35699;SDS011;21818;51.078;12.108;2024-03-02T07:19:39;23.10;;;10.10;;
35699;SDS011;21818;51.078;12.108;2024-03-02T07:22:08;19.83;;;10.45;;
35699;SDS011;21818;51.078;12.108;2024-03-02T07:24:40;18.88;;;9.15;;
35699;SDS011;21818;51.078;12.108;2024-03-02T07:27:06;23.25;;;9.85;;
35699;SDS011;21818;51.078;12.108;2024-03-02T07:29:33;18.95;;;10.05;;
35699;SDS011;21818;51.078;12.108;2024-03-02T07:31:58;19.05;;;9.45;;
35699;SDS011;21818;51.078;12.108;2024-03-02T07:34:24;19.80;;;10.00;;
35699;SDS011;21818;51.078;12.108;2024-03-02T07:36:49;18.83;;;9.45;;
35699;SDS011;21818;51.078;12.108;2024-03-02T07:39:15;19.67;;;9.25;;
35699;SDS011;21818;51.078;12.108;2024-03-02T07:41:41;21.70;;;10.27;;
35699;SDS011;21818;51.078;12.108;2024-03-02T07:44:07;19.50;;;10.00;;
35699;SDS011;21818;51.078;12.108;2024-03-02T07:46:32;16.83;;;8.82;;
35699;SDS011;21818;51.078;12.108;2024-03-02T07:48:58;20.75;;;9.32;;
35699;SDS011;21818;51.078;12.108;2024-03-02T07:51:23;20.48;;;10.10;;
35699;SDS011;21818;51.078;12.108;2024-03-02T07:53:49;18.17;;;9.93;;
35699;SDS011;21818;51.078;12.108;2024-03-02T07:56:14;20.73;;;9.25;;
35699;SDS011;21818;51.078;12.108;2024-03-02T07:58:47;17.38;;;8.85;;
35699;SDS011;21818;51.078;12.108;2024-03-02T08:01:14;19.73;;;10.27;;
35699;SDS011;21818;51.078;12.108;2024-03-02T08:03:39;22.42;;;10.93;;
35699;SDS011;21818;51.078;12.108;2024-03-02T08:06:05;20.27;;;10.20;;
35699;SDS011;21818;51.078;12.108;2024-03-02T08:08:31;19.98;;;9.68;;
35699;SDS011;21818;51.078;12.108;2024-03-02T08:10:56;20.33;;;10.65;;
35699;SDS011;21818;51.078;12.108;2024-03-02T08:13:22;19.30;;;10.40;;
35699;SDS011;21818;51.078;12.108;2024-03-02T08:15:47;21.77;;;11.13;;
35699;SDS011;21818;51.078;12.108;2024-03-02T08:18:13;20.60;;;9.75;;
35699;SDS011;21818;51.078;12.108;2024-03-02T08:20:39;23.00;;;10.23;;
35699;SDS011;21818;51.078;12.108;2024-03-02T08:23:05;19.92;;;10.13;;
35699;SDS011;21818;51.078;12.108;2024-03-02T08:25:31;21.38;;;11.18;;
35699;SDS011;21818;51.078;12.108;2024-03-02T08:27:57;21.52;;;10.23;;
35699;SDS011;21818;51.078;12.108;2024-03-02T08:30:23;19.40;;;10.05;;
35699;SDS011;21818;51.078;12.108;2024-03-02T08:32:48;24.48;;;10.65;;
35699;SDS011;21818;51.078;12.108;2024-03-02T08:35:14;20.40;;;9.88;;
35699;SDS011;21818;51.078;12.108;2024-03-02T08:37:41;20.23;;;10.32;;
35699;SDS011;21818;51.078;12.108;2024-03-02T08:40:07;21.65;;;10.35;;
35699;SDS011;21818;51.078;12.108;2024-03-02T08:42:33;22.48;;;10.80;;
35699;SDS011;21818;51.078;12.108;2024-03-02T08:44:59;18.25;;;9.40;;
35699;SDS011;21818;51.078;12.108;2024-03-02T08:47:26;18.90;;;10.30;;
35699;SDS011;21818;51.078;12.108;2024-03-02T08:49:52;17.13;;;9.65;;
35699;SDS011;21818;51.078;12.108;2024-03-02T08:52:18;22.25;;;10.90;;
35699;SDS011;21818;51.078;12.108;2024-03-02T08:54:43;17.77;;;9.52;;
35699;SDS011;21818;51.078;12.108;2024-03-02T08:57:09;18.00;;;8.88;;
35699;SDS011;21818;51.078;12.108;2024-03-02T08:59:35;16.30;;;9.48;;
35699;SDS011;21818;51.078;12.108;2024-03-02T09:02:00;17.70;;;9.48;;
35699;SDS011;21818;51.078;12.108;2024-03-02T09:04:26;18.10;;;9.57;;
35699;SDS011;21818;51.078;12.108;2024-03-02T09:06:52;21.40;;;9.60;;
35699;SDS011;21818;51.078;12.108;2024-03-02T09:09:18;17.08;;;9.40;;
35699;SDS011;21818;51.078;12.108;2024-03-02T09:11:43;16.40;;;9.45;;
35699;SDS011;21818;51.078;12.108;2024-03-02T09:14:11;19.17;;;10.85;;
35699;SDS011;21818;51.078;12.108;2024-03-02T09:16:36;17.75;;;8.85;;
35699;SDS011;21818;51.078;12.108;2024-03-02T09:19:03;19.55;;;10.25;;
35699;SDS011;21818;51.078;12.108;2024-03-02T09:21:28;20.35;;;10.43;;
35699;SDS011;21818;51.078;12.108;2024-03-02T09:23:55;16.80;;;9.00;;
35699;SDS011;21818;51.078;12.108;2024-03-02T09:26:21;19.30;;;10.23;;
35699;SDS011;21818;51.078;12.108;2024-03-02T09:28:49;17.70;;;8.48;;
35699;SDS011;21818;51.078;12.108;2024-03-02T09:31:15;16.20;;;9.15;;
35699;SDS011;21818;51.078;12.108;2024-03-02T09:33:41;19.13;;;9.43;;
35699;SDS011;21818;51.078;12.108;2024-03-02T09:36:16;21.05;;;10.80;;
35699;SDS011;21818;51.078;12.108;2024-03-02T09:38:45;17.73;;;9.48;;
35699;SDS011;21818;51.078;12.108;2024-03-02T09:41:11;17.83;;;9.60;;
35699;SDS011;21818;51.078;12.108;2024-03-02T09:43:37;16.08;;;7.88;;
35699;SDS011;21818;51.078;12.108;2024-03-02T09:46:03;14.07;;;8.35;;
35699;SDS011;21818;51.078;12.108;2024-03-02T09:48:29;18.10;;;9.68;;
35699;SDS011;21818;51.078;12.108;2024-03-02T09:50:55;16.98;;;9.05;;
35699;SDS011;21818;51.078;12.108;2024-03-02T09:53:21;19.33;;;9.40;;
35699;SDS011;21818;51.078;12.108;2024-03-02T09:55:48;14.70;;;7.60;;
35699;SDS011;21818;51.078;12.108;2024-03-02T09:58:13;17.10;;;9.32;;
35699;SDS011;21818;51.078;12.108;2024-03-02T10:00:39;16.48;;;8.65;;
35699;SDS011;21818;51.078;12.108;2024-03-02T10:03:04;19.50;;;8.60;;
35699;SDS011;21818;51.078;12.108;2024-03-02T10:05:30;15.25;;;8.65;;
35699;SDS011;21818;51.078;12.108;2024-03-02T10:08:00;15.00;;;7.07;;
35699;SDS011;21818;51.078;12.108;2024-03-02T10:10:36;18.23;;;8.70;;
35699;SDS011;21818;51.078;12.108;2024-03-02T10:13:07;13.75;;;7.40;;
35699;SDS011;21818;51.078;12.108;2024-03-02T10:15:34;16.15;;;8.23;;
35699;SDS011;21818;51.078;12.108;2024-03-02T10:18:01;13.55;;;8.02;;
35699;SDS011;21818;51.078;12.108;2024-03-02T10:20:27;16.63;;;8.05;;
35699;SDS011;21818;51.078;12.108;2024-03-02T10:23:09;14.40;;;7.10;;
35699;SDS011;21818;51.078;12.108;2024-03-02T10:25:38;12.23;;;7.15;;
35699;SDS011;21818;51.078;12.108;2024-03-02T10:28:04;12.70;;;6.75;;
35699;SDS011;21818;51.078;12.108;2024-03-02T10:30:33;10.27;;;6.35;;
35699;SDS011;21818;51.078;12.108;2024-03-02T10:33:00;11.13;;;6.05;;
35699;SDS011;21818;51.078;12.108;2024-03-02T10:35:30;12.25;;;6.85;;
35699;SDS011;21818;51.078;12.108;2024-03-02T10:37:58;11.63;;;6.88;;
35699;SDS011;21818;51.078;12.108;2024-03-02T10:40:26;13.10;;;7.03;;
35699;SDS011;21818;51.078;12.108;2024-03-02T10:42:51;11.88;;;7.22;;
35699;SDS011;21818;51.078;12.108;2024-03-02T10:45:17;12.13;;;6.63;;
35699;SDS011;21818;51.078;12.108;2024-03-02T10:47:45;13.80;;;6.35;;
35699;SDS011;21818;51.078;12.108;2024-03-02T10:50:12;12.40;;;6.60;;
35699;SDS011;21818;51.078;12.108;2024-03-02T10:52:37;15.43;;;7.93;;
35699;SDS011;21818;51.078;12.108;2024-03-02T10:55:04;11.27;;;6.53;;
35699;SDS011;21818;51.078;12.108;2024-03-02T11:00:19;13.07;;;6.35;;
35699;SDS011;21818;51.078;12.108;2024-03-02T11:02:51;11.55;;;5.95;;
35699;SDS011;21818;51.078;12.108;2024-03-02T11:05:26;14.32;;;8.02;;
35699;SDS011;21818;51.078;12.108;2024-03-02T11:07:53;12.15;;;6.82;;
35699;SDS011;21818;51.078;12.108;2024-03-02T11:10:25;13.88;;;7.22;;
35699;SDS011;21818;51.078;12.108;2024-03-02T11:13:00;12.27;;;6.25;;
35699;SDS011;21818;51.078;12.108;2024-03-02T11:15:29;11.75;;;6.82;;
35699;SDS011;21818;51.078;12.108;2024-03-02T11:17:55;12.70;;;6.85;;
35699;SDS011;21818;51.078;12.108;2024-03-02T11:20:22;9.82;;;5.80;;
35699;SDS011;21818;51.078;12.108;2024-03-02T11:22:49;8.13;;;5.45;;
35699;SDS011;21818;51.078;12.108;2024-03-02T11:25:27;10.57;;;6.05;;
35699;SDS011;21818;51.078;12.108;2024-03-02T11:33:00;10.40;;;5.90;;
35699;SDS011;21818;51.078;12.108;2024-03-02T11:35:31;9.57;;;5.55;;
35699;SDS011;21818;51.078;12.108;2024-03-02T11:37:57;10.35;;;5.50;;
35699;SDS011;21818;51.078;12.108;2024-03-02T11:40:27;9.18;;;5.18;;
35699;SDS011;21818;51.078;12.108;2024-03-02T11:42:53;8.77;;;4.80;;
35699;SDS011;21818;51.078;12.108;2024-03-02T11:45:23;9.27;;;5.35;;
35699;SDS011;21818;51.078;12.108;2024-03-02T11:47:50;8.13;;;4.75;;
35699;SDS011;21818;51.078;12.108;2024-03-02T11:50:26;7.63;;;4.53;;
35699;SDS011;21818;51.078;12.108;2024-03-02T11:53:14;8.07;;;4.65;;
35699;SDS011;21818;51.078;12.108;2024-03-02T11:55:40;7.85;;;4.45;;
35699;SDS011;21818;51.078;12.108;2024-03-02T11:58:08;7.85;;;3.92;;
35699;SDS011;21818;51.078;12.108;2024-03-02T12:00:34;7.40;;;4.63;;
35699;SDS011;21818;51.078;12.108;2024-03-02T12:03:01;8.32;;;4.55;;
35699;SDS011;21818;51.078;12.108;2024-03-02T12:08:00;7.55;;;4.30;;
35699;SDS011;21818;51.078;12.108;2024-03-02T12:10:27;8.05;;;4.63;;
35699;SDS011;21818;51.078;12.108;2024-03-02T12:13:01;8.63;;;4.40;;
35699;SDS011;21818;51.078;12.108;2024-03-02T12:15:29;7.30;;;4.70;;
35699;SDS011;21818;51.078;12.108;2024-03-02T12:17:57;5.72;;;3.90;;
35699;SDS011;21818;51.078;12.108;2024-03-02T12:20:24;7.38;;;4.35;;
35699;SDS011;21818;51.078;12.108;2024-03-02T12:22:53;6.75;;;3.97;;
35699;SDS011;21818;51.078;12.108;2024-03-02T12:25:20;7.30;;;3.95;;
35699;SDS011;21818;51.078;12.108;2024-03-02T12:27:47;6.55;;;3.90;;
35699;SDS011;21818;51.078;12.108;2024-03-02T12:30:18;7.57;;;3.60;;
35699;SDS011;21818;51.078;12.108;2024-03-02T12:32:44;7.20;;;4.05;;
35699;SDS011;21818;51.078;12.108;2024-03-02T12:35:12;9.18;;;3.70;;
35699;SDS011;21818;51.078;12.108;2024-03-02T12:37:47;7.03;;;3.58;;
35699;SDS011;21818;51.078;12.108;2024-03-02T12:40:14;6.85;;;4.22;;
35699;SDS011;21818;51.078;12.108;2024-03-02T12:42:43;6.93;;;4.10;;
35699;SDS011;21818;51.078;12.108;2024-03-02T12:45:09;7.32;;;3.85;;
35699;SDS011;21818;51.078;12.108;2024-03-02T12:47:35;7.88;;;4.53;;
35699;SDS011;21818;51.078;12.108;2024-03-02T12:50:02;9.25;;;4.75;;
35699;SDS011;21818;51.078;12.108;2024-03-02T12:52:28;8.63;;;5.38;;
35699;SDS011;21818;51.078;12.108;2024-03-02T12:54:54;8.50;;;5.07;;
35699;SDS011;21818;51.078;12.108;2024-03-02T12:57:26;11.65;;;4.97;;
35699;SDS011;21818;51.078;12.108;2024-03-02T12:59:57;7.28;;;4.88;;
35699;SDS011;21818;51.078;12.108;2024-03-02T13:02:33;10.55;;;5.22;;
35699;SDS011;21818;51.078;12.108;2024-03-02T13:05:00;8.88;;;5.95;;
35699;SDS011;21818;51.078;12.108;2024-03-02T13:07:26;9.63;;;5.80;;
35699;SDS011;21818;51.078;12.108;2024-03-02T13:09:52;7.97;;;4.80;;
35699;SDS011;21818;51.078;12.108;2024-03-02T13:12:20;9.02;;;5.25;;
35699;SDS011;21818;51.078;12.108;2024-03-02T13:14:50;10.25;;;5.72;;
35699;SDS011;21818;51.078;12.108;2024-03-02T13:17:17;8.65;;;5.18;;
35699;SDS011;21818;51.078;12.108;2024-03-02T13:19:50;9.93;;;5.78;;
35699;SDS011;21818;51.078;12.108;2024-03-02T13:22:25;8.80;;;5.07;;
35699;SDS011;21818;51.078;12.108;2024-03-02T13:24:51;8.70;;;5.05;;
35699;SDS011;21818;51.078;12.108;2024-03-02T13:27:19;7.97;;;4.90;;
35699;SDS011;21818;51.078;12.108;2024-03-02T13:29:45;9.20;;;5.03;;
35699;SDS011;21818;51.078;12.108;2024-03-02T13:32:12;7.20;;;4.40;;
35699;SDS011;21818;51.078;12.108;2024-03-02T13:34:39;8.57;;;5.35;;
35699;SDS011;21818;51.078;12.108;2024-03-02T13:37:05;8.63;;;4.82;;
35699;SDS011;21818;51.078;12.108;2024-03-02T13:39:31;7.57;;;4.85;;
35699;SDS011;21818;51.078;12.108;2024-03-02T13:41:58;7.53;;;4.47;;
35699;SDS011;21818;51.078;12.108;2024-03-02T13:44:28;9.05;;;4.45;;
35699;SDS011;21818;51.078;12.108;2024-03-02T13:46:55;9.02;;;4.90;;
35699;SDS011;21818;51.078;12.108;2024-03-02T13:49:20;7.38;;;4.72;;
35699;SDS011;21818;51.078;12.108;2024-03-02T13:51:46;8.23;;;4.35;;
35699;SDS011;21818;51.078;12.108;2024-03-02T13:54:11;6.90;;;4.47;;
35699;SDS011;21818;51.078;12.108;2024-03-02T13:56:37;6.35;;;4.28;;
35699;SDS011;21818;51.078;12.108;2024-03-02T13:59:04;7.57;;;4.03;;
35699;SDS011;21818;51.078;12.108;2024-03-02T14:01:30;5.32;;;3.47;;
35699;SDS011;21818;51.078;12.108;2024-03-02T14:03:57;7.18;;;4.22;;
35699;SDS011;21818;51.078;12.108;2024-03-02T14:06:23;5.88;;;3.88;;
35699;SDS011;21818;51.078;12.108;2024-03-02T14:08:49;6.50;;;4.13;;
35699;SDS011;21818;51.078;12.108;2024-03-02T14:11:15;6.00;;;3.65;;
35699;SDS011;21818;51.078;12.108;2024-03-02T14:13:41;5.38;;;3.53;;
35699;SDS011;21818;51.078;12.108;2024-03-02T14:16:09;5.10;;;3.40;;
35699;SDS011;21818;51.078;12.108;2024-03-02T14:18:35;6.85;;;3.60;;
35699;SDS011;21818;51.078;12.108;2024-03-02T14:21:01;6.60;;;3.38;;
35699;SDS011;21818;51.078;12.108;2024-03-02T14:23:28;6.28;;;3.72;;
35699;SDS011;21818;51.078;12.108;2024-03-02T14:25:54;4.28;;;3.10;;
35699;SDS011;21818;51.078;12.108;2024-03-02T14:28:20;5.55;;;3.50;;
35699;SDS011;21818;51.078;12.108;2024-03-02T14:30:46;4.40;;;2.55;;